createdAt,value
2019-04-07T00:00:55.371Z,21.00
2019-04-07T00:03:25.558Z,20.97
2019-04-07T00:05:55.948Z,19.60
2019-04-07T00:08:26.259Z,20.40
2019-04-07T00:10:56.586Z,19.90
2019-04-07T00:13:27.119Z,17.80
2019-04-07T00:15:57.440Z,19.07
2019-04-07T00:18:28.460Z,22.43
2019-04-07T00:20:58.531Z,18.60
2019-04-07T00:23:28.845Z,21.33
2019-04-07T00:25:58.944Z,22.20
2019-04-07T00:28:28.798Z,20.73
2019-04-07T00:30:58.830Z,20.37
2019-04-07T00:33:28.876Z,21.53
2019-04-07T00:35:59.252Z,21.53
2019-04-07T00:38:29.405Z,19.70
2019-04-07T00:40:59.375Z,18.63
2019-04-07T00:43:29.299Z,25.73
2019-04-07T00:45:59.501Z,24.90
2019-04-07T00:48:29.451Z,19.63
2019-04-07T00:51:00.275Z,20.07
2019-04-07T00:53:30.224Z,18.53
2019-04-07T00:56:00.396Z,20.20
2019-04-07T00:58:30.426Z,22.73
2019-04-07T01:01:00.967Z,20.93
2019-04-07T01:03:30.928Z,20.17
2019-04-07T01:06:01.184Z,20.53
2019-04-07T01:08:31.152Z,17.93
2019-04-07T01:11:01.379Z,22.60
2019-04-07T01:13:31.946Z,21.50
2019-04-07T01:16:02.184Z,25.00
2019-04-07T01:18:35.484Z,19.77
2019-04-07T01:21:05.746Z,18.53
2019-04-07T01:23:36.371Z,18.83
2019-04-07T01:26:07.398Z,24.10
2019-04-07T01:28:37.596Z,24.03
2019-04-07T01:31:07.889Z,22.40
2019-04-07T01:33:38.146Z,19.70
2019-04-07T01:36:08.367Z,18.37
2019-04-07T01:38:38.347Z,20.17
2019-04-07T01:41:18.864Z,20.80
2019-04-07T01:43:54.840Z,21.63
2019-04-07T01:46:32.684Z,20.33
2019-04-07T01:49:23.805Z,21.07
2019-04-07T01:52:00.840Z,23.90
2019-04-07T01:54:40.188Z,21.40
2019-04-07T01:57:32.345Z,20.77
2019-04-07T02:00:20.082Z,19.60
2019-04-07T02:02:59.919Z,20.13
2019-04-07T02:05:56.814Z,22.03
2019-04-07T02:08:27.344Z,18.23
2019-04-07T02:11:17.411Z,18.43
2019-04-07T02:14:10.018Z,22.17
2019-04-07T02:16:59.254Z,22.10
2019-04-07T02:19:37.043Z,18.07
2019-04-07T02:22:27.326Z,28.47
2019-04-07T02:25:08.336Z,21.20
2019-04-07T02:27:56.819Z,19.20
2019-04-07T02:30:54.319Z,22.33
2019-04-07T02:33:31.020Z,20.73
2019-04-07T02:36:22.813Z,19.77
2019-04-07T02:38:52.010Z,18.13
2019-04-07T02:41:47.404Z,18.77
2019-04-07T02:44:37.076Z,19.43
2019-04-07T02:47:14.798Z,19.40
2019-04-07T02:50:03.399Z,19.87
2019-04-07T02:52:51.443Z,21.33
2019-04-07T02:55:45.188Z,23.40
2019-04-07T02:58:22.823Z,21.37
2019-04-07T03:01:18.117Z,19.93
2019-04-07T03:04:10.189Z,20.07
2019-04-07T03:06:53.076Z,17.87
2019-04-07T03:09:40.719Z,17.50
2019-04-07T03:12:21.462Z,23.20
2019-04-07T03:15:07.020Z,21.70
2019-04-07T03:18:00.295Z,19.60
2019-04-07T03:20:40.806Z,22.73
2019-04-07T03:23:33.746Z,22.20
2019-04-07T03:26:13.354Z,20.83
2019-04-07T03:29:00.134Z,22.50
2019-04-07T03:31:53.486Z,22.83
2019-04-07T03:34:40.838Z,26.17
2019-04-07T03:37:36.428Z,27.73
2019-04-07T03:40:15.552Z,23.90
2019-04-07T03:42:53.976Z,22.60
2019-04-07T03:45:39.368Z,21.23
2019-04-07T03:48:28.427Z,25.83
2019-04-07T03:51:04.906Z,22.33
2019-04-07T03:53:43.118Z,21.03
2019-04-07T03:56:20.353Z,21.17
2019-04-07T03:59:03.578Z,24.63
2019-04-07T04:02:00.890Z,23.70
2019-04-07T04:04:50.628Z,20.23
2019-04-07T04:07:49.453Z,27.07
2019-04-07T04:10:24.946Z,22.10
2019-04-07T04:13:03.035Z,27.80
2019-04-07T04:15:44.674Z,22.90
2019-04-07T04:18:14.831Z,21.60
2019-04-07T04:20:44.782Z,30.73
2019-04-07T04:23:14.652Z,26.23
2019-04-07T04:25:45.400Z,22.37
2019-04-07T04:28:16.360Z,22.77
2019-04-07T04:30:46.695Z,23.80
2019-04-07T04:33:16.606Z,20.27
2019-04-07T04:35:46.623Z,24.83
2019-04-07T04:38:17.712Z,20.23
2019-04-07T04:40:48.026Z,21.50
2019-04-07T04:43:18.094Z,24.20
2019-04-07T04:45:48.446Z,24.40
2019-04-07T04:48:19.558Z,21.70
2019-04-07T04:50:50.426Z,25.57
2019-04-07T04:53:20.865Z,23.17
2019-04-07T04:55:51.486Z,24.17
2019-04-07T04:58:24.785Z,25.80
2019-04-07T05:00:54.781Z,24.77
2019-04-07T05:03:25.012Z,24.53
2019-04-07T05:05:55.489Z,23.70
2019-04-07T05:08:27.042Z,24.70
2019-04-07T05:10:57.555Z,23.53
2019-04-07T05:13:27.818Z,26.70
2019-04-07T05:15:58.061Z,22.77
2019-04-07T05:18:27.949Z,23.77
2019-04-07T05:20:58.237Z,24.70
2019-04-07T05:23:28.504Z,25.40
2019-04-07T05:25:59.192Z,28.03
2019-04-07T05:28:36.703Z,21.40
2019-04-07T05:31:04.496Z,25.93
2019-04-07T05:33:34.534Z,21.87
2019-04-07T05:36:04.850Z,29.77
2019-04-07T05:38:35.687Z,24.93
2019-04-07T05:41:06.395Z,23.70
2019-04-07T05:43:36.975Z,25.17
2019-04-07T05:46:08.018Z,21.20
2019-04-07T05:48:39.182Z,27.00
2019-04-07T05:51:09.772Z,26.20
2019-04-07T05:53:39.936Z,23.53
2019-04-07T05:56:10.226Z,21.27
2019-04-07T05:58:41.879Z,26.27
2019-04-07T06:01:12.890Z,25.87
2019-04-07T06:03:43.619Z,22.83
2019-04-07T06:06:13.737Z,24.33
2019-04-07T06:08:46.979Z,26.67
2019-04-07T06:11:15.945Z,22.20
2019-04-07T06:13:46.605Z,26.30
2019-04-07T06:16:19.939Z,26.37
2019-04-07T06:18:48.322Z,24.80
2019-04-07T06:21:19.076Z,24.73
2019-04-07T06:23:49.601Z,24.20
2019-04-07T06:26:19.806Z,22.03
2019-04-07T06:28:53.271Z,27.87
2019-04-07T06:31:24.412Z,22.30
2019-04-07T06:33:55.097Z,25.63
2019-04-07T06:36:26.547Z,26.13
2019-04-07T06:38:56.784Z,26.97
2019-04-07T06:41:30.061Z,25.07
2019-04-07T06:44:08.913Z,25.13
2019-04-07T06:46:49.271Z,29.27
2019-04-07T06:49:27.809Z,22.73
2019-04-07T06:52:13.825Z,24.00
2019-04-07T06:55:08.885Z,24.07
2019-04-07T06:57:58.245Z,24.30
2019-04-07T07:00:46.272Z,23.23
2019-04-07T07:03:38.116Z,26.97
2019-04-07T07:06:25.426Z,27.63
2019-04-07T07:09:14.760Z,28.10
2019-04-07T07:11:55.074Z,25.50
2019-04-07T07:14:41.573Z,32.90
2019-04-07T07:17:22.691Z,24.60
2019-04-07T07:20:15.978Z,30.53
2019-04-07T07:22:49.612Z,24.27
2019-04-07T07:25:20.427Z,23.30
2019-04-07T07:27:52.312Z,24.93
2019-04-07T07:30:25.978Z,28.80
2019-04-07T07:33:01.950Z,24.83
2019-04-07T07:35:32.320Z,27.10
2019-04-07T07:38:02.776Z,26.93
2019-04-07T07:40:34.958Z,28.23
2019-04-07T07:43:05.633Z,25.80
2019-04-07T07:45:36.262Z,25.03
2019-04-07T07:48:07.404Z,23.10
2019-04-07T07:50:38.739Z,27.47
2019-04-07T07:53:10.339Z,23.73
2019-04-07T07:55:41.239Z,28.53
2019-04-07T07:58:12.232Z,27.33
2019-04-07T08:00:43.420Z,24.03
2019-04-07T08:03:13.927Z,25.43
2019-04-07T08:05:44.520Z,23.83
2019-04-07T08:08:15.681Z,24.80
2019-04-07T08:10:46.352Z,22.17
2019-04-07T08:13:16.906Z,32.33
2019-04-07T08:15:47.127Z,22.17
2019-04-07T08:18:19.600Z,21.47
2019-04-07T08:20:49.093Z,21.80
2019-04-07T08:23:19.854Z,19.57
2019-04-07T08:25:52.902Z,19.90
2019-04-07T08:28:21.885Z,22.73
2019-04-07T08:30:51.987Z,21.83
2019-04-07T08:33:22.601Z,18.97
2019-04-07T08:35:55.042Z,19.83
2019-04-07T08:38:26.766Z,19.67
2019-04-07T08:40:56.749Z,20.50
2019-04-07T08:43:27.616Z,18.10
2019-04-07T08:45:58.003Z,22.33
2019-04-07T08:48:28.914Z,20.17
2019-04-07T08:51:00.741Z,19.03
2019-04-07T08:53:30.617Z,22.00
2019-04-07T08:56:00.961Z,20.97
2019-04-07T08:58:36.148Z,23.50
2019-04-07T09:01:03.356Z,15.47
2019-04-07T09:03:34.636Z,25.40
2019-04-07T09:06:04.794Z,17.83
2019-04-07T09:08:36.983Z,18.20
2019-04-07T09:11:15.762Z,20.10
2019-04-07T09:13:51.334Z,18.03
2019-04-07T09:16:53.829Z,16.17
2019-04-07T09:19:41.448Z,18.43
2019-04-07T09:22:20.108Z,18.77
2019-04-07T09:25:08.506Z,17.37
2019-04-07T09:28:15.387Z,17.67
2019-04-07T09:31:14.356Z,20.53
2019-04-07T09:34:11.570Z,17.07
2019-04-07T09:36:59.058Z,19.73
2019-04-07T09:39:52.787Z,15.40
2019-04-07T09:42:17.194Z,20.17
2019-04-07T09:44:56.346Z,21.20
2019-04-07T09:47:46.872Z,16.80
2019-04-07T09:50:32.747Z,14.23
2019-04-07T09:53:21.375Z,19.67
2019-04-07T09:56:23.012Z,12.30
2019-04-07T09:59:03.513Z,19.37
2019-04-07T10:01:59.288Z,19.37
2019-04-07T10:04:55.742Z,13.47
2019-04-07T10:07:40.295Z,13.43
2019-04-07T10:10:19.405Z,17.93
2019-04-07T10:13:07.680Z,18.53
2019-04-07T10:16:02.855Z,15.33
2019-04-07T10:18:58.075Z,18.17
2019-04-07T10:21:49.715Z,19.77
2019-04-07T10:24:38.034Z,17.03
2019-04-07T10:27:29.654Z,14.07
2019-04-07T10:30:11.718Z,18.67
2019-04-07T10:33:03.881Z,15.90
2019-04-07T10:35:43.515Z,14.07
2019-04-07T10:38:36.207Z,17.10
2019-04-07T10:41:34.666Z,16.07
2019-04-07T10:44:17.169Z,14.50
2019-04-07T10:46:56.059Z,13.37
2019-04-07T10:49:58.534Z,14.33
2019-04-07T10:52:49.343Z,14.40
2019-04-07T10:55:27.685Z,16.63
2019-04-07T10:58:08.249Z,20.63
2019-04-07T11:00:58.680Z,18.07
2019-04-07T11:03:54.855Z,17.20
2019-04-07T11:06:43.952Z,20.47
2019-04-07T11:09:51.175Z,16.70
2019-04-07T11:12:45.804Z,20.13
2019-04-07T11:15:27.747Z,17.90
2019-04-07T11:18:19.589Z,17.03
2019-04-07T11:21:14.456Z,13.13
2019-04-07T11:23:52.302Z,15.63
2019-04-07T11:26:41.839Z,16.90
2019-04-07T11:29:18.257Z,17.20
2019-04-07T11:32:03.635Z,16.60
2019-04-07T11:34:45.509Z,13.93
2019-04-07T11:37:40.802Z,20.13
2019-04-07T11:40:24.919Z,15.57
2019-04-07T11:43:24.709Z,16.13
2019-04-07T11:46:19.667Z,14.30
2019-04-07T11:49:13.435Z,15.43
2019-04-07T11:52:03.715Z,15.03
2019-04-07T11:54:49.868Z,12.37
2019-04-07T11:57:27.095Z,15.27
2019-04-07T12:00:16.278Z,13.30
2019-04-07T12:03:13.755Z,19.33
2019-04-07T12:06:02.586Z,15.50
2019-04-07T12:08:56.919Z,18.27
2019-04-07T12:11:49.381Z,12.10
2019-04-07T12:14:31.981Z,13.03
2019-04-07T12:17:30.254Z,11.47
2019-04-07T12:20:22.732Z,14.07
2019-04-07T12:23:01.991Z,12.93
2019-04-07T12:25:54.734Z,16.00
2019-04-07T12:28:35.349Z,16.87
2019-04-07T12:31:13.774Z,16.77
2019-04-07T12:33:57.351Z,12.87
2019-04-07T12:36:34.843Z,14.47
2019-04-07T12:39:18.944Z,16.93
2019-04-07T12:41:59.460Z,14.53
2019-04-07T12:44:55.520Z,12.60
2019-04-07T12:47:34.518Z,13.07
2019-04-07T12:50:26.834Z,14.27
2019-04-07T12:53:16.216Z,13.47
2019-04-07T12:56:00.973Z,12.97
2019-04-07T12:58:50.882Z,13.07
2019-04-07T13:01:44.551Z,13.40
2019-04-07T13:04:48.711Z,15.83
2019-04-07T13:07:52.119Z,12.63
2019-04-07T13:10:41.648Z,17.53
2019-04-07T13:13:44.904Z,16.47
2019-04-07T13:16:26.320Z,14.83
2019-04-07T13:19:22.100Z,12.77
2019-04-07T13:22:02.163Z,12.47
2019-04-07T13:24:45.490Z,13.53
2019-04-07T13:27:38.907Z,16.27
2019-04-07T13:30:18.156Z,12.63
2019-04-07T13:32:57.532Z,13.47
2019-04-07T13:35:45.766Z,19.13
2019-04-07T13:38:34.665Z,15.03
2019-04-07T13:41:17.753Z,13.10
2019-04-07T13:43:59.428Z,15.10
2019-04-07T13:46:38.866Z,14.17
2019-04-07T13:49:24.155Z,12.43
2019-04-07T13:52:00.659Z,13.57
2019-04-07T13:54:49.335Z,17.53
2019-04-07T13:57:44.091Z,17.90
2019-04-07T14:00:21.712Z,11.67
2019-04-07T14:03:00.238Z,12.40
2019-04-07T14:05:38.842Z,15.17
2019-04-07T14:08:26.362Z,11.70
2019-04-07T14:11:15.932Z,15.43
2019-04-07T14:14:05.622Z,22.83
2019-04-07T14:16:44.552Z,14.77
2019-04-07T14:19:32.226Z,12.60
2019-04-07T14:22:20.914Z,13.97
2019-04-07T14:25:09.106Z,16.63
2019-04-07T14:27:46.192Z,13.90
2019-04-07T14:30:38.220Z,13.27
2019-04-07T14:33:33.007Z,11.90
2019-04-07T14:36:09.671Z,15.57
2019-04-07T14:38:45.551Z,12.43
2019-04-07T14:41:34.504Z,12.60
2019-04-07T14:44:22.594Z,22.20
2019-04-07T14:47:10.755Z,13.60
2019-04-07T14:49:53.419Z,17.10
2019-04-07T14:52:42.935Z,10.90
2019-04-07T14:55:31.501Z,12.60
2019-04-07T14:58:18.956Z,11.43
2019-04-07T15:01:27.063Z,14.40
2019-04-07T15:03:57.447Z,14.33
2019-04-07T15:06:30.930Z,12.20
2019-04-07T15:09:10.441Z,14.60
2019-04-07T15:11:45.543Z,11.77
2019-04-07T15:14:15.689Z,12.97
2019-04-07T15:16:45.640Z,11.97
2019-04-07T15:19:16.559Z,15.97
2019-04-07T15:21:48.846Z,12.90
2019-04-07T15:24:18.706Z,14.57
2019-04-07T15:26:50.130Z,12.30
2019-04-07T15:29:21.000Z,13.67
2019-04-07T15:31:52.177Z,16.47
2019-04-07T15:34:23.082Z,14.13
2019-04-07T15:36:53.036Z,12.03
2019-04-07T15:39:28.905Z,13.53
2019-04-07T15:41:59.588Z,11.77
2019-04-07T15:44:30.134Z,12.87
2019-04-07T15:47:00.339Z,12.67
2019-04-07T15:49:31.057Z,11.00
2019-04-07T15:52:04.452Z,10.80
2019-04-07T15:54:33.904Z,12.93
2019-04-07T15:57:04.059Z,14.63
2019-04-07T15:59:34.234Z,11.27
2019-04-07T16:02:08.526Z,12.30
2019-04-07T16:04:36.431Z,14.13
2019-04-07T16:07:06.611Z,10.50
2019-04-07T16:09:48.823Z,13.87
2019-04-07T16:12:08.244Z,12.87
2019-04-07T16:14:40.269Z,14.43
2019-04-07T16:17:11.999Z,16.20
2019-04-07T16:19:45.071Z,16.50
2019-04-07T16:22:14.651Z,16.30
2019-04-07T16:24:46.338Z,14.07
2019-04-07T16:27:17.090Z,11.70
2019-04-07T16:29:47.928Z,11.07
2019-04-07T16:32:18.025Z,11.40
2019-04-07T16:34:48.269Z,16.13
2019-04-07T16:37:18.277Z,10.63
2019-04-07T16:39:48.460Z,14.80
2019-04-07T16:42:18.497Z,21.10
2019-04-07T16:44:48.509Z,16.60
2019-04-07T16:47:23.257Z,17.43
2019-04-07T16:49:50.561Z,11.37
2019-04-07T16:52:20.574Z,12.60
2019-04-07T16:54:51.584Z,12.60
2019-04-07T16:57:27.057Z,12.90
2019-04-07T16:59:54.246Z,12.33
2019-04-07T17:02:25.134Z,15.83
2019-04-07T17:05:05.783Z,12.60
2019-04-07T17:07:36.366Z,36.10
2019-04-07T17:10:07.915Z,12.10
2019-04-07T17:12:40.618Z,11.40
2019-04-07T17:15:17.493Z,13.70
2019-04-07T17:17:51.350Z,11.33
2019-04-07T17:20:20.042Z,14.60
2019-04-07T17:22:51.099Z,11.93
2019-04-07T17:25:21.712Z,11.77
2019-04-07T17:27:51.949Z,11.53
2019-04-07T17:30:24.371Z,11.73
2019-04-07T17:32:54.538Z,11.63
2019-04-07T17:35:29.558Z,9.90
2019-04-07T17:38:04.108Z,11.33
2019-04-07T17:40:37.682Z,11.60
2019-04-07T17:43:31.164Z,11.63
2019-04-07T17:46:17.010Z,13.40
2019-04-07T17:49:09.958Z,12.33
2019-04-07T17:51:45.457Z,11.90
2019-04-07T17:54:33.414Z,10.37
2019-04-07T17:57:10.028Z,10.70
2019-04-07T17:59:55.917Z,11.77
2019-04-07T18:02:43.089Z,13.10
2019-04-07T18:05:28.107Z,12.97
2019-04-07T18:08:07.785Z,12.20
2019-04-07T18:10:54.137Z,13.83
2019-04-07T18:13:49.350Z,11.13
2019-04-07T18:16:28.665Z,12.03
2019-04-07T18:19:14.217Z,20.03
2019-04-07T18:22:01.200Z,12.93
2019-04-07T18:24:53.300Z,16.50
2019-04-07T18:27:50.687Z,11.43
2019-04-07T18:30:30.456Z,11.47
2019-04-07T18:33:07.885Z,13.53
2019-04-07T18:35:57.009Z,10.70
2019-04-07T18:38:46.988Z,13.90
2019-04-07T18:41:41.359Z,12.67
2019-04-07T18:44:25.157Z,13.37
2019-04-07T18:47:04.799Z,10.90
2019-04-07T18:50:04.141Z,15.70
2019-04-07T18:52:45.696Z,10.13
2019-04-07T18:55:32.097Z,10.90
2019-04-07T18:58:26.724Z,13.77
2019-04-07T19:01:10.272Z,11.23
2019-04-07T19:03:58.734Z,10.73
2019-04-07T19:06:50.764Z,13.43
2019-04-07T19:09:47.633Z,11.63
2019-04-07T19:12:38.492Z,12.80
2019-04-07T19:15:47.533Z,12.97
2019-04-07T19:18:27.140Z,14.97
2019-04-07T19:21:28.399Z,12.00
2019-04-07T19:24:08.015Z,13.13
2019-04-07T19:26:52.262Z,13.53
2019-04-07T19:29:39.124Z,12.17
2019-04-07T19:32:14.648Z,15.27
2019-04-07T19:35:08.896Z,15.30
2019-04-07T19:37:58.412Z,14.10
2019-04-07T19:40:38.161Z,12.57
2019-04-07T19:43:30.774Z,19.47
2019-04-07T19:46:18.358Z,15.57
2019-04-07T19:49:15.217Z,16.23
2019-04-07T19:51:57.384Z,13.73
2019-04-07T19:54:49.465Z,17.17
2019-04-07T19:57:25.836Z,16.23
2019-04-07T20:00:21.565Z,15.53
2019-04-07T20:02:57.382Z,17.90
2019-04-07T20:05:50.903Z,14.10
2019-04-07T20:08:25.720Z,13.47
2019-04-07T20:11:24.730Z,14.03
2019-04-07T20:14:11.745Z,17.90
2019-04-07T20:17:08.422Z,14.60
2019-04-07T20:19:56.157Z,16.00
2019-04-07T20:23:00.273Z,18.77
2019-04-07T20:25:52.748Z,20.57
2019-04-07T20:28:32.590Z,15.43
2019-04-07T20:31:14.662Z,17.13
2019-04-07T20:33:53.354Z,19.37
2019-04-07T20:36:29.719Z,17.00
2019-04-07T20:39:07.906Z,16.07
2019-04-07T20:41:56.717Z,17.50
2019-04-07T20:44:38.245Z,16.87
2019-04-07T20:47:26.626Z,19.67
2019-04-07T20:50:04.286Z,18.93
2019-04-07T20:52:54.417Z,23.17
2019-04-07T20:55:50.675Z,21.93
2019-04-07T20:58:43.684Z,22.90
2019-04-07T21:01:42.950Z,20.20
2019-04-07T21:04:22.219Z,17.83
2019-04-07T21:07:11.525Z,17.03
2019-04-07T21:09:48.428Z,18.07
2019-04-07T21:12:35.740Z,18.50
2019-04-07T21:15:32.352Z,19.70
2019-04-07T21:18:17.934Z,17.57
2019-04-07T21:21:11.796Z,16.80
2019-04-07T21:24:00.396Z,18.60
2019-04-07T21:26:36.009Z,19.37
2019-04-07T21:29:28.369Z,15.97
2019-04-07T21:32:18.776Z,21.17
2019-04-07T21:35:00.479Z,21.67
2019-04-07T21:37:40.708Z,15.37
2019-04-07T21:40:28.585Z,18.63
2019-04-07T21:43:17.960Z,19.90
2019-04-07T21:45:55.758Z,20.40
2019-04-07T21:48:50.895Z,19.83
2019-04-07T21:51:29.046Z,23.30
2019-04-07T21:54:07.665Z,15.80
2019-04-07T21:56:54.283Z,19.07
2019-04-07T21:59:33.486Z,17.67
2019-04-07T22:02:29.217Z,15.80
2019-04-07T22:05:15.584Z,19.93
2019-04-07T22:08:10.961Z,16.67
2019-04-07T22:10:38.132Z,15.77
2019-04-07T22:13:09.166Z,16.17
2019-04-07T22:15:47.403Z,16.90
2019-04-07T22:18:11.235Z,15.83
2019-04-07T22:20:41.467Z,18.00
2019-04-07T22:23:11.430Z,16.70
2019-04-07T22:25:52.090Z,17.23
2019-04-07T22:28:22.712Z,15.47
2019-04-07T22:30:55.003Z,19.77
2019-04-07T22:33:27.498Z,20.00
2019-04-07T22:35:57.561Z,18.53
2019-04-07T22:38:27.788Z,19.37
2019-04-07T22:40:58.432Z,15.67
2019-04-07T22:43:28.493Z,17.43
2019-04-07T22:46:07.655Z,16.17
2019-04-07T22:48:30.953Z,17.53
2019-04-07T22:51:02.848Z,16.87
2019-04-07T22:53:33.200Z,21.13
2019-04-07T22:56:06.363Z,21.20
2019-04-07T22:58:36.109Z,18.27
2019-04-07T23:01:07.583Z,21.47
2019-04-07T23:03:37.873Z,19.73
2019-04-07T23:06:07.929Z,18.60
2019-04-07T23:08:39.043Z,17.30
2019-04-07T23:11:09.344Z,17.77
2019-04-07T23:13:39.815Z,21.07
2019-04-07T23:16:13.816Z,20.70
2019-04-07T23:18:42.230Z,16.57
2019-04-07T23:21:12.384Z,19.47
2019-04-07T23:23:42.281Z,19.53
2019-04-07T23:26:12.601Z,19.03
2019-04-07T23:28:42.586Z,18.60
2019-04-07T23:31:12.721Z,17.27
2019-04-07T23:33:42.699Z,20.13
2019-04-07T23:36:12.620Z,19.53
2019-04-07T23:38:43.814Z,17.60
2019-04-07T23:41:13.818Z,19.00
2019-04-07T23:43:43.858Z,18.03
2019-04-07T23:46:20.629Z,18.00
2019-04-07T23:48:45.672Z,19.17
2019-04-07T23:51:16.425Z,17.27
2019-04-07T23:54:12.772Z,19.17
2019-04-07T23:56:44.910Z,17.93
2019-04-07T23:59:15.386Z,18.70
